Terminal Aerodrome Forecast
Issued by NWS

Home | Current Version | Previous Version | Text Only | Print | Product List | Glossary On
Versions: 1 2 3 4 5 6 7 8 9 10 11 12 13 14 15 16 17 18 19 20 21
000
FTUS46 KLOX 241744
TAFPRB
TAF
KPRB 241744Z 2418/2518 20006KT P6SM BKN070
     FM242100 24012G18KT P6SM VCSH OVC070
     FM250200 20010KT P6SM -SHRA SCT025 OVC080
     FM250400 15007KT P6SM -RA SCT015 OVC025
     FM250900 VRB03KT P6SM -SHRA BKN015 OVC025
     FM251200 VRB03KT P6SM VCSH SCT015 OVC025
     FM251600 32006KT P6SM BKN030=

USA.gov is the U.S. government's official web portal to all federal, state and local government web resources and services.